createdAt,value
2023-05-20T00:00:01.571Z,15.43
2023-05-20T00:02:28.806Z,15.36
2023-05-20T00:04:55.886Z,15.36
2023-05-20T00:07:23.094Z,15.32
2023-05-20T00:09:49.737Z,15.32
2023-05-20T00:12:16.488Z,15.29
2023-05-20T00:14:43.166Z,15.25
2023-05-20T00:17:09.713Z,15.20
2023-05-20T00:19:36.320Z,15.17
2023-05-20T00:22:02.899Z,15.16
2023-05-20T00:24:29.568Z,15.18
2023-05-20T00:26:55.974Z,15.17
2023-05-20T00:29:22.739Z,15.16
2023-05-20T00:31:49.300Z,15.07
2023-05-20T00:34:16.052Z,15.06
2023-05-20T00:36:43.244Z,15.02
2023-05-20T00:39:10.145Z,15.02
2023-05-20T00:41:36.698Z,15.01
2023-05-20T00:44:03.326Z,14.99
2023-05-20T00:46:30.083Z,14.94
2023-05-20T00:48:57.704Z,14.88
2023-05-20T00:51:24.221Z,14.84
2023-05-20T00:53:51.384Z,14.79
2023-05-20T00:56:18.621Z,14.78
2023-05-20T00:58:45.160Z,14.77
2023-05-20T01:01:11.858Z,14.77
2023-05-20T01:03:39.025Z,14.73
2023-05-20T01:06:05.749Z,14.71
2023-05-20T01:08:32.437Z,14.72
2023-05-20T01:11:06.785Z,14.71
2023-05-20T01:13:43.143Z,14.65
2023-05-20T01:16:11.448Z,14.60
2023-05-20T01:18:39.329Z,14.56
2023-05-20T01:21:10.876Z,14.54
2023-05-20T01:23:41.922Z,14.53
2023-05-20T01:26:10.420Z,14.51
2023-05-20T01:28:39.040Z,14.51
2023-05-20T01:31:10.868Z,14.51
2023-05-20T01:33:41.147Z,14.50
2023-05-20T01:36:09.822Z,14.47
2023-05-20T01:38:37.161Z,14.44
2023-05-20T01:41:07.828Z,14.41
2023-05-20T01:43:37.649Z,14.37
2023-05-20T01:46:06.628Z,14.38
2023-05-20T01:48:33.426Z,14.38
2023-05-20T01:51:02.268Z,14.38
2023-05-20T01:53:29.006Z,14.35
2023-05-20T01:55:55.633Z,14.32
2023-05-20T01:58:22.478Z,14.28
2023-05-20T02:00:49.263Z,14.26
2023-05-20T02:03:18.557Z,14.22
2023-05-20T02:05:45.661Z,14.25
2023-05-20T02:08:16.345Z,14.23
2023-05-20T02:10:42.819Z,14.20
2023-05-20T02:13:09.488Z,14.17
2023-05-20T02:15:36.209Z,14.15
2023-05-20T02:18:05.701Z,14.15
2023-05-20T02:20:36.151Z,14.11
2023-05-20T02:23:05.678Z,14.13
2023-05-20T02:25:34.095Z,14.12
2023-05-20T02:28:01.003Z,14.10
2023-05-20T02:30:29.807Z,14.07
2023-05-20T02:32:57.794Z,14.05
2023-05-20T02:35:24.319Z,14.04
2023-05-20T02:37:50.790Z,14.03
2023-05-20T02:40:17.306Z,14.01
2023-05-20T02:42:43.840Z,13.98
2023-05-20T02:45:10.493Z,13.95
2023-05-20T02:47:37.037Z,13.95
2023-05-20T02:50:03.750Z,13.94
2023-05-20T02:52:30.245Z,13.95
2023-05-20T02:54:56.968Z,13.97
2023-05-20T02:57:23.601Z,13.96
2023-05-20T02:59:50.079Z,13.93
2023-05-20T03:02:16.895Z,13.90
2023-05-20T03:04:43.481Z,13.89
2023-05-20T03:07:10.113Z,13.86
2023-05-20T03:09:36.660Z,13.81
2023-05-20T03:12:03.445Z,13.79
2023-05-20T03:14:30.050Z,13.79
2023-05-20T03:16:56.997Z,13.80
2023-05-20T03:19:26.719Z,13.81
2023-05-20T03:21:53.555Z,13.82
2023-05-20T03:24:20.032Z,13.82
2023-05-20T03:26:47.091Z,13.85
2023-05-20T03:29:13.718Z,13.88
2023-05-20T03:31:40.444Z,13.90
2023-05-20T03:34:08.313Z,13.92
2023-05-20T03:36:34.876Z,13.90
2023-05-20T03:39:02.075Z,13.92
2023-05-20T03:41:28.591Z,13.93
2023-05-20T03:43:55.416Z,13.93
2023-05-20T03:46:24.132Z,13.94
2023-05-20T03:48:50.802Z,13.93
2023-05-20T03:51:17.274Z,13.93
2023-05-20T03:53:44.959Z,13.92
2023-05-20T03:56:11.453Z,13.92
2023-05-20T03:58:38.747Z,13.93
2023-05-20T04:01:05.943Z,13.96
2023-05-20T04:03:32.602Z,13.96
2023-05-20T04:06:00.324Z,13.93
2023-05-20T04:08:26.825Z,13.91
2023-05-20T04:10:57.299Z,13.89
2023-05-20T04:13:25.479Z,13.91
2023-05-20T04:15:53.259Z,13.92
2023-05-20T04:18:19.730Z,13.92
2023-05-20T04:20:47.060Z,13.95
2023-05-20T04:23:14.077Z,13.96
2023-05-20T04:25:42.031Z,13.96
2023-05-20T04:28:12.609Z,13.95
2023-05-20T04:30:39.072Z,13.91
2023-05-20T04:33:06.288Z,14.00
2023-05-20T04:35:42.858Z,14.01
2023-05-20T04:38:32.606Z,14.04
2023-05-20T04:41:02.321Z,14.06
2023-05-20T04:43:39.198Z,14.08
2023-05-20T04:46:11.274Z,14.05
2023-05-20T04:48:37.988Z,14.10
2023-05-20T04:51:07.301Z,14.07
2023-05-20T04:53:34.089Z,14.10
2023-05-20T04:56:03.625Z,14.10
2023-05-20T04:58:31.625Z,14.13
2023-05-20T05:00:58.096Z,14.11
2023-05-20T05:03:24.636Z,14.10
2023-05-20T05:05:51.621Z,14.14
2023-05-20T05:08:18.193Z,14.15
2023-05-20T05:10:45.305Z,14.07
2023-05-20T05:13:11.972Z,14.21
2023-05-20T05:15:38.502Z,14.21
2023-05-20T05:18:05.025Z,14.23
2023-05-20T05:20:31.674Z,14.29
2023-05-20T05:22:58.178Z,14.31
2023-05-20T05:25:24.616Z,14.33
2023-05-20T05:27:51.239Z,14.42
2023-05-20T05:30:18.035Z,14.52
2023-05-20T05:32:44.910Z,14.73
2023-05-20T05:35:11.480Z,14.92
2023-05-20T05:37:37.963Z,15.07
2023-05-20T05:40:04.905Z,15.20
2023-05-20T05:42:32.889Z,15.37
2023-05-20T05:44:59.482Z,15.47
2023-05-20T05:47:31.594Z,15.59
2023-05-20T05:49:59.875Z,15.86
2023-05-20T05:52:29.308Z,16.19
2023-05-20T05:54:55.978Z,16.50
2023-05-20T05:57:22.713Z,16.79
2023-05-20T05:59:50.730Z,17.08
2023-05-20T06:02:22.065Z,17.48
2023-05-20T06:04:48.545Z,18.05
2023-05-20T06:07:15.358Z,18.52
2023-05-20T06:09:41.944Z,18.92
2023-05-20T06:12:08.401Z,19.27
2023-05-20T06:14:34.910Z,19.64
2023-05-20T06:17:02.456Z,19.96
2023-05-20T06:19:29.040Z,20.28
2023-05-20T06:21:56.971Z,20.53
2023-05-20T06:24:24.429Z,20.64
2023-05-20T06:26:52.349Z,20.91
2023-05-20T06:29:18.820Z,20.98
2023-05-20T06:31:45.633Z,21.03
2023-05-20T06:34:12.122Z,21.16
2023-05-20T06:36:38.594Z,21.31
2023-05-20T06:39:06.537Z,21.46
2023-05-20T06:41:33.056Z,21.50
2023-05-20T06:43:59.694Z,21.68
2023-05-20T06:46:26.468Z,21.83
2023-05-20T06:48:55.330Z,21.93
2023-05-20T06:51:22.029Z,22.06
2023-05-20T06:53:48.585Z,22.25
2023-05-20T06:56:18.105Z,22.44
2023-05-20T06:58:48.019Z,22.65
2023-05-20T07:01:16.012Z,22.68
2023-05-20T07:03:44.571Z,22.67
2023-05-20T07:06:11.301Z,22.68
2023-05-20T07:08:37.824Z,22.67
2023-05-20T07:11:04.394Z,22.75
2023-05-20T07:13:31.258Z,22.77
2023-05-20T07:15:57.815Z,22.69
2023-05-20T07:18:24.444Z,22.74
2023-05-20T07:20:50.939Z,22.73
2023-05-20T07:23:17.366Z,22.80
2023-05-20T07:25:44.290Z,22.80
2023-05-20T07:28:11.514Z,22.89
2023-05-20T07:30:40.906Z,23.08
2023-05-20T07:33:07.476Z,23.29
2023-05-20T07:35:34.312Z,23.35
2023-05-20T07:38:01.132Z,23.41
2023-05-20T07:40:27.597Z,23.49
2023-05-20T07:42:54.035Z,23.55
2023-05-20T07:45:20.921Z,23.63
2023-05-20T07:47:47.454Z,23.72
2023-05-20T07:50:13.908Z,23.84
2023-05-20T07:52:55.271Z,23.95
2023-05-20T07:55:23.019Z,24.07
2023-05-20T07:57:50.032Z,23.99
2023-05-20T08:00:16.593Z,24.11
2023-05-20T08:02:43.176Z,24.35
2023-05-20T08:05:09.854Z,24.52
2023-05-20T08:07:36.351Z,24.59
2023-05-20T08:10:03.893Z,24.47
2023-05-20T08:12:30.343Z,24.48
2023-05-20T08:14:56.832Z,24.41
2023-05-20T08:17:23.604Z,24.38
2023-05-20T08:19:51.369Z,24.39
2023-05-20T08:22:17.862Z,24.56
2023-05-20T08:24:44.418Z,24.75
2023-05-20T08:27:10.908Z,24.77
2023-05-20T08:29:37.517Z,24.90
2023-05-20T08:32:04.406Z,25.22
2023-05-20T08:34:30.910Z,25.44
2023-05-20T08:36:57.945Z,25.64
2023-05-20T08:39:25.606Z,25.63
2023-05-20T08:41:52.332Z,25.67
2023-05-20T08:44:19.520Z,25.54
2023-05-20T08:46:46.496Z,25.62
2023-05-20T08:49:20.149Z,25.60
2023-05-20T08:51:47.444Z,25.60
2023-05-20T08:54:16.813Z,25.62
2023-05-20T08:56:44.476Z,25.66
2023-05-20T08:59:11.202Z,25.77
2023-05-20T09:01:43.493Z,25.96
2023-05-20T09:04:10.101Z,26.09
2023-05-20T09:06:47.155Z,26.14
2023-05-20T09:09:15.794Z,26.06
2023-05-20T09:11:42.925Z,25.94
2023-05-20T09:14:09.548Z,25.85
2023-05-20T09:16:36.118Z,25.85
2023-05-20T09:19:06.317Z,26.05
2023-05-20T09:21:33.485Z,26.18
2023-05-20T09:24:02.601Z,26.28
2023-05-20T09:26:34.932Z,26.17
2023-05-20T09:29:01.360Z,26.16
2023-05-20T09:31:30.746Z,26.14
2023-05-20T09:33:57.343Z,26.14
2023-05-20T09:36:26.602Z,26.18
2023-05-20T09:38:54.497Z,26.28
2023-05-20T09:41:24.259Z,26.37
2023-05-20T09:43:52.905Z,26.50
2023-05-20T09:46:20.369Z,26.65
2023-05-20T09:48:47.140Z,26.69
2023-05-20T09:51:14.802Z,26.55
2023-05-20T09:53:41.963Z,26.48
2023-05-20T09:56:08.435Z,26.51
2023-05-20T09:58:36.870Z,26.58
2023-05-20T10:01:03.709Z,26.71
2023-05-20T10:03:30.535Z,26.65
2023-05-20T10:06:14.734Z,26.57
2023-05-20T10:08:54.152Z,26.73
2023-05-20T10:11:40.332Z,26.82
2023-05-20T10:14:26.240Z,26.88
2023-05-20T10:17:10.155Z,26.88
2023-05-20T10:19:37.031Z,27.08
2023-05-20T10:22:04.540Z,27.28
2023-05-20T10:24:40.941Z,27.19
2023-05-20T10:27:16.177Z,26.95
2023-05-20T10:29:50.514Z,26.78
2023-05-20T10:32:35.972Z,26.71
2023-05-20T10:35:10.019Z,26.72
2023-05-20T10:37:45.346Z,26.72
2023-05-20T10:40:19.196Z,26.57
2023-05-20T10:42:47.379Z,26.57
2023-05-20T10:45:30.272Z,26.76
2023-05-20T10:47:58.815Z,26.93
2023-05-20T10:50:37.201Z,27.03
2023-05-20T10:53:13.354Z,27.13
2023-05-20T10:55:54.615Z,27.18
2023-05-20T10:58:23.477Z,27.28
2023-05-20T11:00:54.274Z,27.35
2023-05-20T11:03:25.146Z,27.40
2023-05-20T11:05:51.883Z,27.12
2023-05-20T11:08:28.901Z,26.99
2023-05-20T11:10:59.401Z,27.01
2023-05-20T11:13:26.345Z,27.23
2023-05-20T11:15:52.992Z,27.19
2023-05-20T11:18:19.497Z,27.22
2023-05-20T11:20:49.090Z,27.17
2023-05-20T11:23:15.833Z,27.03
2023-05-20T11:25:42.735Z,27.05
2023-05-20T11:28:14.795Z,27.13
2023-05-20T11:30:43.220Z,27.34
2023-05-20T11:33:12.815Z,27.12
2023-05-20T11:35:46.979Z,27.05
2023-05-20T11:38:13.694Z,26.88
2023-05-20T11:40:50.867Z,26.82
2023-05-20T11:43:18.722Z,26.58
2023-05-20T11:45:47.385Z,26.68
2023-05-20T11:48:15.797Z,26.61
2023-05-20T11:50:44.695Z,26.80
2023-05-20T11:53:15.667Z,26.91
2023-05-20T11:55:56.146Z,27.09
2023-05-20T11:58:25.108Z,27.08
2023-05-20T12:00:59.103Z,27.14
2023-05-20T12:03:32.960Z,27.34
2023-05-20T12:06:01.564Z,27.37
2023-05-20T12:08:28.007Z,27.37
2023-05-20T12:10:54.531Z,27.39
2023-05-20T12:13:21.370Z,27.40
2023-05-20T12:15:48.081Z,27.45
2023-05-20T12:18:15.593Z,27.35
2023-05-20T12:20:42.870Z,27.39
2023-05-20T12:23:09.425Z,27.46
2023-05-20T12:25:36.004Z,27.53
2023-05-20T12:28:04.055Z,27.56
2023-05-20T12:30:30.973Z,27.18
2023-05-20T12:32:57.526Z,27.18
2023-05-20T12:35:39.130Z,27.42
2023-05-20T12:38:06.808Z,27.53
2023-05-20T12:40:34.051Z,27.61
2023-05-20T12:43:02.358Z,27.61
2023-05-20T12:45:31.217Z,27.51
2023-05-20T12:47:57.798Z,27.40
2023-05-20T12:50:25.328Z,27.28
2023-05-20T12:52:54.707Z,27.03
2023-05-20T12:55:21.360Z,26.88
2023-05-20T12:57:48.246Z,26.92
2023-05-20T13:00:15.617Z,27.07
2023-05-20T13:02:42.821Z,27.30
2023-05-20T13:05:10.498Z,27.45
2023-05-20T13:07:37.239Z,27.62
2023-05-20T13:10:06.050Z,27.61
2023-05-20T13:12:32.578Z,27.72
2023-05-20T13:14:59.056Z,27.61
2023-05-20T13:17:25.571Z,27.50
2023-05-20T13:19:52.434Z,27.31
2023-05-20T13:22:19.792Z,27.08
2023-05-20T13:24:46.440Z,27.01
2023-05-20T13:27:13.014Z,27.12
2023-05-20T13:29:39.564Z,27.13
2023-05-20T13:32:06.621Z,27.18
2023-05-20T13:34:33.114Z,27.28
2023-05-20T13:36:59.600Z,27.32
2023-05-20T13:39:26.086Z,27.23
2023-05-20T13:41:54.878Z,27.18
2023-05-20T13:44:21.411Z,27.16
2023-05-20T13:46:48.306Z,27.14
2023-05-20T13:49:14.984Z,27.06
2023-05-20T13:51:41.493Z,26.98
2023-05-20T13:54:07.952Z,26.86
2023-05-20T13:56:34.557Z,26.73
2023-05-20T13:59:01.140Z,26.77
2023-05-20T14:01:30.251Z,26.73
2023-05-20T14:03:59.535Z,26.69
2023-05-20T14:06:26.948Z,26.67
2023-05-20T14:08:56.909Z,26.53
2023-05-20T14:11:23.518Z,26.48
2023-05-20T14:13:50.016Z,26.36
2023-05-20T14:16:16.631Z,26.34
2023-05-20T14:18:43.379Z,26.38
2023-05-20T14:21:11.149Z,26.25
2023-05-20T14:23:37.919Z,26.14
2023-05-20T14:26:04.468Z,26.10
2023-05-20T14:28:31.147Z,26.06
2023-05-20T14:30:57.597Z,26.12
2023-05-20T14:33:24.332Z,26.08
2023-05-20T14:35:51.156Z,26.01
2023-05-20T14:38:18.697Z,26.01
2023-05-20T14:40:52.493Z,26.05
2023-05-20T14:43:18.955Z,25.89
2023-05-20T14:45:46.817Z,25.79
2023-05-20T14:48:13.418Z,25.78
2023-05-20T14:50:43.050Z,25.80
2023-05-20T14:53:09.455Z,25.81
2023-05-20T14:55:38.509Z,25.87
2023-05-20T14:58:07.117Z,25.95
2023-05-20T15:00:34.183Z,25.94
2023-05-20T15:03:01.235Z,25.88
2023-05-20T15:05:27.796Z,25.82
2023-05-20T15:07:55.563Z,25.71
2023-05-20T15:10:22.062Z,25.66
2023-05-20T15:12:52.355Z,25.65
2023-05-20T15:15:23.239Z,25.57
2023-05-20T15:17:49.762Z,25.57
2023-05-20T15:20:21.398Z,25.60
2023-05-20T15:22:48.311Z,25.56
2023-05-20T15:25:15.543Z,25.53
2023-05-20T15:27:42.292Z,25.46
2023-05-20T15:30:09.804Z,25.38
2023-05-20T15:32:36.547Z,25.25
2023-05-20T15:35:04.203Z,25.17
2023-05-20T15:37:30.755Z,25.11
2023-05-20T15:39:57.257Z,24.94
2023-05-20T15:42:24.973Z,24.83
2023-05-20T15:44:51.579Z,24.76
2023-05-20T15:47:18.206Z,24.68
2023-05-20T15:49:44.871Z,24.73
2023-05-20T15:52:11.346Z,24.70
2023-05-20T15:54:37.861Z,24.67
2023-05-20T15:57:05.118Z,24.60
2023-05-20T15:59:31.858Z,24.39
2023-05-20T16:01:58.756Z,24.42
2023-05-20T16:04:25.841Z,24.42
2023-05-20T16:06:52.354Z,24.35
2023-05-20T16:09:18.868Z,24.33
2023-05-20T16:11:46.472Z,24.31
2023-05-20T16:14:13.147Z,24.12
2023-05-20T16:16:39.906Z,24.16
2023-05-20T16:19:06.556Z,24.03
2023-05-20T16:21:33.105Z,24.10
2023-05-20T16:23:59.645Z,24.07
2023-05-20T16:26:30.745Z,24.04
2023-05-20T16:28:57.813Z,24.02
2023-05-20T16:31:24.501Z,23.99
2023-05-20T16:33:51.229Z,23.96
2023-05-20T16:36:17.820Z,23.98
2023-05-20T16:38:44.299Z,23.96
2023-05-20T16:41:15.996Z,23.98
2023-05-20T16:43:42.699Z,24.00
2023-05-20T16:46:09.208Z,23.95
2023-05-20T16:48:36.009Z,23.93
2023-05-20T16:51:02.716Z,23.88
2023-05-20T16:53:29.100Z,23.83
2023-05-20T16:55:55.542Z,23.84
2023-05-20T16:58:22.013Z,23.82
2023-05-20T17:00:48.500Z,23.79
2023-05-20T17:03:18.114Z,23.77
2023-05-20T17:05:46.841Z,23.85
2023-05-20T17:08:13.779Z,23.86
2023-05-20T17:10:40.357Z,23.83
2023-05-20T17:13:06.786Z,23.83
2023-05-20T17:15:36.959Z,23.69
2023-05-20T17:18:04.153Z,23.66
2023-05-20T17:20:30.907Z,23.61
2023-05-20T17:22:57.387Z,23.55
2023-05-20T17:25:23.910Z,23.58
2023-05-20T17:27:50.816Z,23.54
2023-05-20T17:30:17.671Z,23.44
2023-05-20T17:32:44.261Z,23.45
2023-05-20T17:35:10.925Z,23.42
2023-05-20T17:37:37.667Z,23.38
2023-05-20T17:40:07.299Z,23.34
2023-05-20T17:42:36.059Z,23.31
2023-05-20T17:45:02.570Z,23.23
2023-05-20T17:47:29.012Z,23.18
2023-05-20T17:49:55.638Z,23.13
2023-05-20T17:52:22.133Z,23.14
2023-05-20T17:54:48.655Z,23.10
2023-05-20T17:57:15.558Z,23.04
2023-05-20T17:59:42.114Z,23.03
2023-05-20T18:02:08.869Z,23.04
2023-05-20T18:04:37.862Z,23.07
2023-05-20T18:07:04.488Z,23.09
2023-05-20T18:09:34.442Z,23.10
2023-05-20T18:12:03.377Z,23.10
2023-05-20T18:14:29.836Z,23.09
2023-05-20T18:16:57.530Z,23.06
2023-05-20T18:19:27.088Z,22.92
2023-05-20T18:21:53.645Z,22.84
2023-05-20T18:24:20.630Z,22.79
2023-05-20T18:26:49.963Z,22.74
2023-05-20T18:29:16.549Z,22.62
2023-05-20T18:31:43.622Z,22.60
2023-05-20T18:34:10.628Z,22.60
2023-05-20T18:36:38.730Z,22.60
2023-05-20T18:39:05.199Z,22.51
2023-05-20T18:41:45.875Z,22.44
2023-05-20T18:44:13.827Z,22.39
2023-05-20T18:46:40.520Z,22.27
2023-05-20T18:49:07.055Z,22.30
2023-05-20T18:51:33.860Z,22.31
2023-05-20T18:54:00.450Z,22.29
2023-05-20T18:56:29.244Z,22.23
2023-05-20T18:58:56.864Z,22.19
2023-05-20T19:01:24.055Z,22.13
2023-05-20T19:03:51.798Z,22.11
2023-05-20T19:06:18.752Z,22.09
2023-05-20T19:08:46.106Z,22.09
2023-05-20T19:11:12.560Z,22.08
2023-05-20T19:13:39.001Z,22.09
2023-05-20T19:16:06.119Z,22.06
2023-05-20T19:18:34.098Z,21.98
2023-05-20T19:21:00.932Z,21.94
2023-05-20T19:23:27.452Z,21.91
2023-05-20T19:25:53.965Z,21.91
2023-05-20T19:28:20.709Z,21.91
2023-05-20T19:30:47.244Z,21.87
2023-05-20T19:33:13.678Z,21.85
2023-05-20T19:35:40.193Z,21.76
2023-05-20T19:38:06.930Z,21.61
2023-05-20T19:40:33.468Z,21.71
2023-05-20T19:42:59.983Z,21.64
2023-05-20T19:45:26.759Z,21.50
2023-05-20T19:47:53.322Z,21.47
2023-05-20T19:50:19.877Z,21.47
2023-05-20T19:52:46.323Z,21.41
2023-05-20T19:55:12.807Z,21.39
2023-05-20T19:57:39.421Z,21.37
2023-05-20T20:00:11.212Z,21.28
2023-05-20T20:02:37.735Z,21.18
2023-05-20T20:05:04.867Z,21.14
2023-05-20T20:07:32.140Z,21.12
2023-05-20T20:09:58.608Z,21.08
2023-05-20T20:12:25.057Z,21.02
2023-05-20T20:14:52.246Z,20.97
2023-05-20T20:17:20.128Z,20.94
2023-05-20T20:19:49.316Z,20.90
2023-05-20T20:22:16.672Z,20.89
2023-05-20T20:24:43.177Z,20.79
2023-05-20T20:27:10.534Z,20.79
2023-05-20T20:29:37.064Z,20.74
2023-05-20T20:32:04.501Z,20.73
2023-05-20T20:34:31.217Z,20.68
2023-05-20T20:37:01.607Z,20.64
2023-05-20T20:39:29.669Z,20.62
2023-05-20T20:41:58.571Z,20.54
2023-05-20T20:44:25.518Z,20.49
2023-05-20T20:46:52.587Z,20.43
2023-05-20T20:49:19.744Z,20.41
2023-05-20T20:51:47.420Z,20.34
2023-05-20T20:54:17.038Z,20.28
2023-05-20T20:56:47.148Z,20.24
2023-05-20T20:59:15.598Z,20.20
2023-05-20T21:01:42.247Z,20.14
2023-05-20T21:04:09.314Z,20.06
2023-05-20T21:06:37.897Z,20.01
2023-05-20T21:09:04.703Z,19.93
2023-05-20T21:11:31.156Z,19.95
2023-05-20T21:14:01.592Z,19.92
2023-05-20T21:16:31.449Z,19.92
2023-05-20T21:18:58.021Z,19.95
2023-05-20T21:21:24.476Z,19.98
2023-05-20T21:23:52.115Z,19.97
2023-05-20T21:26:21.186Z,19.97
2023-05-20T21:28:50.326Z,19.97
2023-05-20T21:31:17.024Z,19.97
2023-05-20T21:33:43.706Z,19.97
2023-05-20T21:36:10.327Z,20.00
2023-05-20T21:38:36.772Z,19.99
2023-05-20T21:41:06.141Z,19.97
2023-05-20T21:43:32.567Z,19.96
2023-05-20T21:45:59.153Z,19.92
2023-05-20T21:48:28.754Z,19.90
2023-05-20T21:50:56.613Z,19.89
2023-05-20T21:53:23.071Z,19.88
2023-05-20T21:55:49.813Z,19.85
2023-05-20T21:58:16.323Z,19.83
2023-05-20T22:00:42.994Z,19.73
2023-05-20T22:03:09.780Z,19.80
2023-05-20T22:05:37.742Z,19.81
2023-05-20T22:08:04.584Z,19.81
2023-05-20T22:10:33.763Z,19.80
2023-05-20T22:13:01.993Z,19.78
2023-05-20T22:15:31.844Z,19.74
2023-05-20T22:17:58.657Z,19.72
2023-05-20T22:20:25.637Z,19.70
2023-05-20T22:22:52.188Z,19.67
2023-05-20T22:25:21.466Z,19.66
2023-05-20T22:27:50.650Z,19.51
2023-05-20T22:30:17.188Z,19.60
2023-05-20T22:32:46.630Z,19.61
2023-05-20T22:35:13.824Z,19.58
2023-05-20T22:37:40.235Z,19.55
2023-05-20T22:40:08.491Z,19.54
2023-05-20T22:42:35.016Z,19.55
2023-05-20T22:45:01.528Z,19.55
2023-05-20T22:47:35.275Z,19.56
2023-05-20T22:50:03.000Z,19.56
2023-05-20T22:52:29.693Z,19.55
2023-05-20T22:54:56.635Z,19.54
2023-05-20T22:57:23.206Z,19.49
2023-05-20T22:59:49.602Z,19.46
2023-05-20T23:02:16.054Z,19.37
2023-05-20T23:04:42.574Z,19.34
2023-05-20T23:07:09.199Z,19.29
2023-05-20T23:09:35.786Z,19.28
2023-05-20T23:12:02.408Z,19.30
2023-05-20T23:14:28.935Z,19.27
2023-05-20T23:16:55.426Z,19.26
2023-05-20T23:19:22.331Z,19.25
2023-05-20T23:21:48.838Z,19.23
2023-05-20T23:24:16.688Z,19.23
2023-05-20T23:26:43.762Z,19.23
2023-05-20T23:29:10.508Z,19.24
2023-05-20T23:31:37.055Z,19.25
2023-05-20T23:34:03.905Z,19.28
2023-05-20T23:36:34.498Z,19.27
2023-05-20T23:39:02.559Z,19.24
2023-05-20T23:41:31.324Z,19.21
2023-05-20T23:43:57.968Z,19.14
2023-05-20T23:46:24.505Z,19.15
2023-05-20T23:48:53.995Z,19.11
2023-05-20T23:51:20.642Z,19.07
2023-05-20T23:53:47.209Z,19.04
2023-05-20T23:56:13.728Z,19.04
2023-05-20T23:58:40.625Z,19.03
